Carmel, Indiana
Current Conditions -  °F | °C
As of 4:55 AM on Friday 19 Dec 2014 (Local Time) from KTYQ Reporting Station
Overcast Overcast  
Wind Chill: 22°   Ceiling: 2100
Heat Index: 22°   Visibility: 7mi
Dew Point: 19°   Wind: 3mph
Humidity: 86%   Direction: 310°NW
Pressure: 30.25"   Gusts: NA
Location:  39.98°N, 86.11°W
Report Text: KTYQ 190955Z AUTO 31003KT 7SM OVC021 M05/M07 A3025 RMK AO2 T10541074
Loading
Personal Weather Stations






























Interactive Weather Map New forecast layout! Learn more

10-Day Weather Forecast

Advertisements
Track Severe Weather on mobile